createdAt,value
2022-09-12T09:19:50.993Z,24.60
2022-09-12T09:20:22.631Z,24.60
2022-09-12T09:20:54.103Z,24.61
2022-09-12T09:21:25.504Z,24.61
2022-09-12T09:21:56.921Z,24.60
2022-09-12T09:22:28.333Z,24.60
2022-09-12T09:22:59.729Z,24.62
2022-09-12T09:23:31.151Z,24.62
2022-09-12T09:24:02.569Z,24.62
2022-09-12T09:24:33.998Z,24.61
2022-09-12T09:25:05.403Z,24.60
2022-09-12T09:25:36.780Z,24.62
2022-09-12T09:26:08.267Z,24.62
2022-09-12T09:26:39.649Z,24.62
2022-09-12T09:27:29.800Z,24.61
2022-09-12T09:28:02.436Z,24.63
2022-09-12T09:28:33.840Z,24.62
2022-09-12T09:29:05.246Z,24.61
2022-09-12T09:29:36.722Z,24.60
2022-09-12T09:30:08.106Z,24.60
2022-09-12T09:30:39.574Z,24.61
2022-09-12T09:31:11.118Z,24.59
2022-09-12T09:31:42.575Z,24.61
2022-09-12T09:32:13.995Z,24.62
2022-09-12T09:32:45.379Z,24.62
2022-09-12T09:33:16.994Z,24.61
2022-09-12T09:33:48.425Z,24.62
2022-09-12T09:34:19.929Z,24.64
2022-09-12T09:34:51.332Z,24.63
2022-09-12T09:35:22.730Z,24.63
2022-09-12T09:35:54.120Z,24.63
2022-09-12T09:36:25.588Z,24.65
2022-09-12T09:36:56.987Z,24.64
2022-09-12T09:37:28.437Z,24.65
2022-09-12T09:37:59.805Z,24.63
2022-09-12T09:38:31.194Z,24.63
2022-09-12T09:39:02.614Z,24.62
2022-09-12T09:39:34.053Z,24.61
2022-09-12T09:40:05.546Z,24.60
2022-09-12T09:40:37.015Z,24.59
2022-09-12T09:41:08.406Z,24.60
2022-09-12T09:41:39.876Z,24.61
2022-09-12T09:42:11.268Z,24.60
2022-09-12T09:42:42.590Z,24.64
2022-09-12T09:43:14.019Z,24.62
2022-09-12T09:43:45.446Z,24.62
2022-09-12T09:44:16.995Z,24.61
2022-09-12T09:44:48.487Z,24.62
2022-09-12T09:45:19.902Z,24.62
2022-09-12T09:45:51.381Z,24.61
2022-09-12T09:46:22.911Z,24.62
2022-09-12T09:46:54.529Z,24.63
2022-09-12T09:47:25.991Z,24.65
2022-09-12T09:47:57.542Z,24.64
2022-09-12T09:48:28.956Z,24.64
2022-09-12T09:49:02.678Z,24.63
2022-09-12T09:49:34.080Z,24.63
2022-09-12T09:50:05.475Z,24.62
2022-09-12T09:50:36.876Z,24.62
2022-09-12T09:51:08.235Z,24.61
2022-09-12T09:51:39.679Z,24.59
2022-09-12T09:52:11.158Z,24.62
2022-09-12T09:52:42.615Z,24.63
2022-09-12T09:53:14.068Z,24.64
2022-09-12T09:53:45.484Z,24.62
2022-09-12T09:54:17.097Z,24.60
2022-09-12T09:54:48.502Z,24.62
2022-09-12T09:55:20.097Z,24.62
2022-09-12T09:55:51.552Z,24.63
2022-09-12T09:56:23.354Z,24.61
2022-09-12T09:56:54.849Z,24.63
2022-09-12T09:57:26.291Z,24.63
2022-09-12T09:57:57.689Z,24.63
2022-09-12T09:58:29.086Z,24.63
2022-09-12T09:59:00.472Z,24.62
2022-09-12T09:59:31.836Z,24.65
2022-09-12T10:00:03.274Z,24.65
2022-09-12T10:00:34.692Z,24.64
2022-09-12T10:01:06.237Z,24.64
2022-09-12T10:01:37.746Z,24.62
2022-09-12T10:02:09.180Z,24.63
2022-09-12T10:02:40.775Z,24.62
2022-09-12T10:03:13.965Z,24.62
2022-09-12T10:03:45.674Z,24.64
2022-09-12T10:04:17.137Z,24.66
2022-09-12T10:04:48.571Z,24.65
2022-09-12T10:05:20.082Z,24.64
2022-09-12T10:05:51.472Z,24.66
2022-09-12T10:06:22.902Z,24.65
2022-09-12T10:06:54.357Z,24.65
2022-09-12T10:07:25.840Z,24.67
2022-09-12T10:07:57.273Z,24.67
2022-09-12T10:08:28.737Z,24.65
2022-09-12T10:09:00.133Z,24.63
2022-09-12T10:09:31.558Z,24.65
2022-09-12T10:10:02.977Z,24.64
2022-09-12T10:10:34.349Z,24.64
2022-09-12T10:11:05.784Z,24.65
2022-09-12T10:11:37.204Z,24.64
2022-09-12T10:12:08.612Z,24.66
2022-09-12T10:12:40.075Z,24.68
2022-09-12T10:13:11.573Z,24.66
2022-09-12T10:13:43.118Z,24.65
2022-09-12T10:14:14.621Z,24.64
2022-09-12T10:14:46.052Z,24.64
2022-09-12T10:15:17.421Z,24.64
2022-09-12T10:15:48.909Z,24.66
2022-09-12T10:16:20.434Z,24.66
2022-09-12T10:16:51.915Z,24.65
2022-09-12T10:17:23.345Z,24.69
2022-09-12T10:17:54.792Z,24.66
2022-09-12T10:18:26.284Z,24.67
2022-09-12T10:18:57.675Z,24.65
2022-09-12T10:19:29.111Z,24.66
2022-09-12T10:20:19.929Z,24.66
2022-09-12T10:20:52.039Z,24.67
2022-09-12T10:21:23.461Z,24.65
2022-09-12T10:21:54.854Z,24.65
2022-09-12T10:22:26.270Z,24.67
2022-09-12T10:22:57.665Z,24.65
2022-09-12T10:23:29.082Z,24.67
2022-09-12T10:24:00.493Z,24.67
2022-09-12T10:24:31.972Z,24.67
2022-09-12T10:25:03.403Z,24.68
2022-09-12T10:25:34.842Z,24.67
2022-09-12T10:26:06.252Z,24.68
2022-09-12T10:26:37.676Z,24.70
2022-09-12T10:27:09.100Z,24.68
2022-09-12T10:27:40.533Z,24.67
2022-09-12T10:28:11.956Z,24.67
2022-09-12T10:28:43.488Z,24.68
2022-09-12T10:29:14.946Z,24.67
2022-09-12T10:29:46.415Z,24.67
2022-09-12T10:30:17.794Z,24.68
2022-09-12T10:30:49.216Z,24.71
2022-09-12T10:31:20.655Z,24.70
2022-09-12T10:31:52.122Z,24.72
2022-09-12T10:32:26.329Z,24.71
2022-09-12T10:33:01.884Z,24.72
2022-09-12T10:33:33.303Z,24.71
2022-09-12T10:34:04.752Z,24.70
2022-09-12T10:34:36.148Z,24.70
2022-09-12T10:35:07.692Z,24.72
2022-09-12T10:35:39.104Z,24.71
2022-09-12T10:36:10.541Z,24.72
2022-09-12T10:36:41.951Z,24.69
2022-09-12T10:37:13.386Z,24.71
2022-09-12T10:37:46.667Z,24.71
2022-09-12T10:38:20.818Z,24.71
2022-09-12T10:38:52.251Z,24.69
2022-09-12T10:39:23.669Z,24.69
2022-09-12T10:39:55.115Z,24.68
2022-09-12T10:40:26.609Z,24.69
2022-09-12T10:40:58.063Z,24.68
2022-09-12T10:41:29.487Z,24.68
2022-09-12T10:42:00.894Z,24.69
2022-09-12T10:42:32.324Z,24.69
2022-09-12T10:43:03.762Z,24.70
2022-09-12T10:43:35.301Z,24.69
2022-09-12T10:44:06.789Z,24.70
2022-09-12T10:44:38.278Z,24.70
2022-09-12T10:45:09.688Z,24.69
2022-09-12T10:45:41.266Z,24.67
2022-09-12T10:46:12.757Z,24.68
2022-09-12T10:46:44.221Z,24.69
2022-09-12T10:47:15.767Z,24.69
2022-09-12T10:47:47.421Z,24.68
2022-09-12T10:48:18.845Z,24.67
2022-09-12T10:48:50.253Z,24.69
2022-09-12T10:49:21.655Z,24.67
2022-09-12T10:49:53.065Z,24.68
2022-09-12T10:50:24.480Z,24.68
2022-09-12T10:50:56.088Z,24.69
2022-09-12T10:51:27.504Z,24.69
2022-09-12T10:51:58.918Z,24.68
2022-09-12T10:52:30.333Z,24.69
2022-09-12T10:53:01.789Z,24.69
2022-09-12T10:53:34.704Z,24.68
2022-09-12T10:54:06.339Z,24.70
2022-09-12T10:54:37.752Z,24.69
2022-09-12T10:55:09.177Z,24.68
2022-09-12T10:55:40.588Z,24.68
2022-09-12T10:56:12.101Z,24.68
2022-09-12T10:56:43.561Z,24.69
2022-09-12T10:57:14.971Z,24.69
2022-09-12T10:57:46.408Z,24.69
2022-09-12T10:58:17.836Z,24.66
2022-09-12T10:58:49.212Z,24.66
2022-09-12T10:59:20.642Z,24.67
2022-09-12T10:59:52.062Z,24.67
2022-09-12T11:00:23.449Z,24.67
2022-09-12T11:00:54.855Z,24.65
2022-09-12T11:01:26.392Z,24.68
2022-09-12T11:01:57.882Z,24.68
2022-09-12T11:02:29.356Z,24.69
2022-09-12T11:03:00.852Z,24.67
2022-09-12T11:03:32.247Z,24.67
2022-09-12T11:04:03.665Z,24.65
2022-09-12T11:04:35.087Z,24.66
2022-09-12T11:05:06.494Z,24.66
2022-09-12T11:05:37.942Z,24.69
2022-09-12T11:06:09.336Z,24.67
2022-09-12T11:06:40.793Z,24.68
2022-09-12T11:07:12.231Z,24.68
2022-09-12T11:07:43.612Z,24.69
2022-09-12T11:08:14.978Z,24.68
2022-09-12T11:08:46.430Z,24.69
2022-09-12T11:09:17.835Z,24.69
2022-09-12T11:09:49.221Z,24.71
2022-09-12T11:10:20.652Z,24.73
2022-09-12T11:10:52.084Z,24.73
2022-09-12T11:11:23.472Z,24.73
2022-09-12T11:11:54.934Z,24.75
2022-09-12T11:12:26.490Z,24.75
2022-09-12T11:12:57.944Z,24.76
2022-09-12T11:13:29.376Z,24.73
2022-09-12T11:14:00.852Z,24.73
2022-09-12T11:14:32.259Z,24.77
2022-09-12T11:15:03.629Z,24.76
2022-09-12T11:15:35.080Z,24.73
2022-09-12T11:16:06.601Z,24.72
2022-09-12T11:16:40.196Z,24.73
2022-09-12T11:17:13.775Z,24.73
2022-09-12T11:17:45.227Z,24.73
2022-09-12T11:18:16.869Z,24.73
2022-09-12T11:18:48.319Z,24.73
2022-09-12T11:19:19.751Z,24.73
2022-09-12T11:19:51.137Z,24.73
2022-09-12T11:20:22.634Z,24.76
2022-09-12T11:20:54.055Z,24.75
2022-09-12T11:21:25.452Z,24.76
2022-09-12T11:21:56.889Z,24.77
2022-09-12T11:22:31.770Z,24.78
2022-09-12T11:23:03.503Z,24.78
2022-09-12T11:23:34.894Z,24.78
2022-09-12T11:24:06.277Z,24.78
2022-09-12T11:24:37.651Z,24.78
2022-09-12T11:25:09.031Z,24.78
2022-09-12T11:25:40.483Z,24.77
2022-09-12T11:26:11.951Z,24.80
2022-09-12T11:26:43.360Z,24.81
2022-09-12T11:27:14.771Z,24.82
2022-09-12T11:27:46.290Z,24.81
2022-09-12T11:28:17.758Z,24.82
2022-09-12T11:28:49.153Z,24.80
2022-09-12T11:29:20.554Z,24.81
2022-09-12T11:29:51.973Z,24.82
2022-09-12T11:30:23.345Z,24.83
2022-09-12T11:30:54.900Z,24.80
2022-09-12T11:31:26.314Z,24.80
2022-09-12T11:31:57.763Z,24.79
2022-09-12T11:32:29.203Z,24.80
2022-09-12T11:33:00.637Z,24.80
2022-09-12T11:33:32.048Z,24.81
2022-09-12T11:34:03.479Z,24.81
2022-09-12T11:34:34.954Z,24.81
2022-09-12T11:35:06.348Z,24.82
2022-09-12T11:35:37.756Z,24.82
2022-09-12T11:36:09.283Z,24.81
2022-09-12T11:36:40.670Z,24.82
2022-09-12T11:37:15.094Z,24.83
2022-09-12T11:37:48.818Z,24.81
2022-09-12T11:38:20.223Z,24.83
2022-09-12T11:38:51.682Z,24.84
2022-09-12T11:39:23.091Z,24.82
2022-09-12T11:39:55.855Z,24.82
2022-09-12T11:40:27.639Z,24.83
2022-09-12T11:40:59.090Z,24.82
2022-09-12T11:41:30.615Z,24.80
2022-09-12T11:42:02.041Z,24.80
2022-09-12T11:42:33.489Z,24.81
2022-09-12T11:43:04.965Z,24.80
2022-09-12T11:43:36.447Z,24.81
2022-09-12T11:44:07.933Z,24.81
2022-09-12T11:44:40.362Z,24.81
2022-09-12T11:45:11.941Z,24.83
2022-09-12T11:45:43.387Z,24.82
2022-09-12T11:46:14.864Z,24.82
2022-09-12T11:46:51.117Z,24.81
2022-09-12T11:47:23.251Z,24.80
2022-09-12T11:47:54.669Z,24.80
2022-09-12T11:48:26.203Z,24.79
2022-09-12T11:48:57.657Z,24.81
2022-09-12T11:49:32.378Z,24.81
2022-09-12T11:50:06.334Z,24.82
2022-09-12T11:50:37.767Z,24.82
2022-09-12T11:51:09.193Z,24.83
2022-09-12T11:51:40.573Z,24.82
2022-09-12T11:52:12.042Z,24.84
2022-09-12T11:52:43.473Z,24.84
2022-09-12T11:53:14.902Z,24.85
2022-09-12T11:53:46.415Z,24.85
2022-09-12T11:54:17.907Z,24.86
2022-09-12T11:54:53.556Z,24.86
2022-09-12T11:55:25.366Z,24.84
2022-09-12T11:55:56.771Z,24.85
2022-09-12T11:56:28.225Z,24.85
2022-09-12T11:56:59.695Z,24.86
2022-09-12T11:57:31.197Z,24.86
2022-09-12T11:58:02.565Z,24.84
2022-09-12T11:58:33.973Z,24.84
2022-09-12T11:59:05.406Z,24.84
2022-09-12T11:59:36.829Z,24.86
2022-09-12T12:00:11.159Z,24.84
2022-09-12T12:00:42.658Z,24.85
2022-09-12T12:01:14.135Z,24.86
2022-09-12T12:01:48.677Z,24.85
2022-09-12T12:02:20.461Z,24.86
2022-09-12T12:02:51.986Z,24.86
2022-09-12T12:03:23.432Z,24.87
2022-09-12T12:03:54.898Z,24.87
2022-09-12T12:04:26.314Z,24.89
2022-09-12T12:04:57.720Z,24.89
2022-09-12T12:05:29.250Z,24.88
2022-09-12T12:06:00.676Z,24.87
2022-09-12T12:06:32.151Z,24.88
2022-09-12T12:07:03.553Z,24.87
2022-09-12T12:07:34.978Z,24.85
2022-09-12T12:08:06.444Z,24.87
2022-09-12T12:08:37.884Z,24.86
2022-09-12T12:09:09.348Z,24.87
2022-09-12T12:09:40.733Z,24.85
2022-09-12T12:10:12.281Z,24.83
2022-09-12T12:10:43.733Z,24.83
2022-09-12T12:11:15.133Z,24.84
2022-09-12T12:11:46.531Z,24.84
2022-09-12T12:12:17.977Z,24.85
2022-09-12T12:12:49.388Z,24.87
2022-09-12T12:13:20.856Z,24.87
2022-09-12T12:13:52.238Z,24.88
2022-09-12T12:14:23.670Z,24.88
2022-09-12T12:14:55.093Z,24.88
2022-09-12T12:15:26.534Z,24.87
2022-09-12T12:15:58.006Z,24.86
2022-09-12T12:16:29.477Z,24.89
2022-09-12T12:17:00.869Z,24.88
2022-09-12T12:17:32.314Z,24.87
2022-09-12T12:18:03.718Z,24.87
2022-09-12T12:18:35.203Z,24.87
2022-09-12T12:19:10.597Z,24.86
2022-09-12T12:19:42.324Z,24.85
2022-09-12T12:20:13.764Z,24.88
2022-09-12T12:20:45.197Z,24.87
2022-09-12T12:21:16.716Z,24.86
2022-09-12T12:21:48.158Z,24.86
2022-09-12T12:22:19.682Z,24.87
2022-09-12T12:22:51.127Z,24.86
2022-09-12T12:23:22.536Z,24.85
2022-09-12T12:23:53.971Z,24.86
2022-09-12T12:24:25.507Z,24.87
2022-09-12T12:24:56.912Z,24.87
2022-09-12T12:25:30.043Z,24.86
2022-09-12T12:26:01.531Z,24.88
2022-09-12T12:26:32.989Z,24.87
2022-09-12T12:27:04.394Z,24.89
2022-09-12T12:27:35.832Z,24.89
2022-09-12T12:28:07.240Z,24.89
2022-09-12T12:28:38.708Z,24.88
2022-09-12T12:29:10.195Z,24.89
2022-09-12T12:29:43.812Z,24.89
2022-09-12T12:30:15.920Z,24.90
2022-09-12T12:30:47.570Z,24.88
2022-09-12T12:31:19.081Z,24.90
2022-09-12T12:31:50.550Z,24.89
2022-09-12T12:32:21.989Z,24.88
2022-09-12T12:32:53.357Z,24.90
2022-09-12T12:33:24.752Z,24.89
2022-09-12T12:33:56.156Z,24.90
2022-09-12T12:34:27.617Z,24.89
2022-09-12T12:34:59.059Z,24.91
2022-09-12T12:35:30.512Z,24.91
2022-09-12T12:36:01.923Z,24.91
2022-09-12T12:36:33.377Z,24.91
2022-09-12T12:37:07.392Z,24.92
2022-09-12T12:37:38.877Z,24.89
2022-09-12T12:38:10.324Z,24.91
2022-09-12T12:38:41.791Z,24.89
2022-09-12T12:39:13.208Z,24.90
2022-09-12T12:39:44.722Z,24.90
2022-09-12T12:40:16.429Z,24.91
2022-09-12T12:40:47.992Z,24.90
2022-09-12T12:41:19.404Z,24.90
2022-09-12T12:41:50.942Z,24.92
2022-09-12T12:42:22.499Z,24.92
2022-09-12T12:42:53.956Z,24.92
2022-09-12T12:43:25.382Z,24.91
2022-09-12T12:43:56.835Z,24.90
2022-09-12T12:44:28.276Z,24.90
2022-09-12T12:44:59.745Z,24.90
2022-09-12T12:45:31.187Z,24.90
2022-09-12T12:46:02.707Z,24.90
2022-09-12T12:46:34.234Z,24.89
2022-09-12T12:47:05.751Z,24.86
2022-09-12T12:47:37.131Z,24.88
2022-09-12T12:48:08.531Z,24.88
2022-09-12T12:48:39.950Z,24.89
2022-09-12T12:49:11.378Z,24.87
2022-09-12T12:49:42.835Z,24.89
2022-09-12T12:50:14.330Z,24.91
2022-09-12T12:50:45.752Z,24.92
2022-09-12T12:51:17.374Z,24.93
2022-09-12T12:51:48.834Z,24.93
2022-09-12T12:52:20.357Z,24.92
2022-09-12T12:52:51.795Z,24.93
2022-09-12T12:53:23.190Z,24.92
2022-09-12T12:53:54.583Z,24.94
2022-09-12T12:54:26.050Z,24.93
2022-09-12T12:54:57.538Z,24.93
2022-09-12T12:55:29.016Z,24.94
2022-09-12T12:56:00.445Z,24.93
2022-09-12T12:56:31.865Z,24.95
2022-09-12T12:57:03.291Z,24.95
2022-09-12T12:57:34.665Z,24.93
2022-09-12T12:58:06.125Z,24.92
2022-09-12T12:58:37.530Z,24.93
2022-09-12T12:59:08.951Z,24.92
2022-09-12T12:59:40.404Z,24.95
2022-09-12T13:00:11.800Z,24.92
2022-09-12T13:00:43.271Z,24.92
2022-09-12T13:01:14.727Z,24.95
2022-09-12T13:01:46.204Z,24.94
2022-09-12T13:02:17.811Z,24.94
2022-09-12T13:02:49.276Z,24.95
2022-09-12T13:03:20.745Z,24.93
2022-09-12T13:03:52.134Z,24.92
2022-09-12T13:04:23.565Z,24.94
2022-09-12T13:04:54.957Z,24.93
2022-09-12T13:05:26.360Z,24.91
2022-09-12T13:05:57.800Z,24.91
2022-09-12T13:06:29.145Z,24.89
2022-09-12T13:07:03.492Z,24.89
2022-09-12T13:07:37.335Z,24.88
2022-09-12T13:08:08.748Z,24.90
2022-09-12T13:08:40.169Z,24.91
2022-09-12T13:09:11.553Z,24.91
2022-09-12T13:09:42.956Z,24.93
2022-09-12T13:10:14.437Z,24.91
2022-09-12T13:10:48.470Z,24.91
2022-09-12T13:11:19.971Z,24.92
2022-09-12T13:11:51.372Z,24.96
2022-09-12T13:12:22.866Z,24.92
2022-09-12T13:12:54.284Z,24.91
2022-09-12T13:13:25.813Z,24.92
2022-09-12T13:13:57.315Z,24.92
2022-09-12T13:14:28.744Z,24.91
2022-09-12T13:15:00.155Z,24.92
2022-09-12T13:15:31.575Z,24.93
2022-09-12T13:16:03.089Z,24.91
2022-09-12T13:16:34.537Z,24.93
2022-09-12T13:17:05.937Z,24.95
2022-09-12T13:17:37.434Z,24.93
2022-09-12T13:18:08.938Z,24.94
2022-09-12T13:18:40.521Z,24.97
2022-09-12T13:19:16.123Z,24.98
2022-09-12T13:19:49.771Z,24.96
2022-09-12T13:20:28.312Z,24.96
2022-09-12T13:21:00.315Z,24.95
2022-09-12T13:21:31.754Z,24.95
2022-09-12T13:22:03.197Z,24.94
2022-09-12T13:22:34.680Z,24.96
2022-09-12T13:23:06.139Z,24.95
2022-09-12T13:23:37.546Z,24.96
2022-09-12T13:24:08.956Z,24.97
2022-09-12T13:24:40.352Z,24.96
2022-09-12T13:25:11.882Z,24.93
2022-09-12T13:25:43.417Z,24.94
2022-09-12T13:26:14.895Z,24.95
2022-09-12T13:26:46.395Z,24.92
2022-09-12T13:27:17.923Z,24.94
2022-09-12T13:27:49.332Z,24.93
2022-09-12T13:28:20.839Z,24.96
2022-09-12T13:28:52.291Z,24.95
2022-09-12T13:29:23.705Z,24.94
2022-09-12T13:29:55.139Z,24.93
2022-09-12T13:30:26.603Z,24.96
2022-09-12T13:30:58.009Z,24.94
2022-09-12T13:31:29.435Z,24.93
2022-09-12T13:32:00.921Z,24.92
2022-09-12T13:32:32.409Z,24.93
2022-09-12T13:33:03.809Z,24.94
2022-09-12T13:33:35.255Z,24.93
2022-09-12T13:34:06.745Z,24.93
2022-09-12T13:34:38.243Z,24.94
2022-09-12T13:35:09.653Z,24.94
2022-09-12T13:35:41.161Z,24.95
2022-09-12T13:36:12.611Z,24.94
2022-09-12T13:36:44.092Z,24.93
2022-09-12T13:37:15.561Z,24.92
2022-09-12T13:37:51.425Z,24.91
2022-09-12T13:38:23.054Z,24.93
2022-09-12T13:38:54.565Z,24.92
2022-09-12T13:39:25.975Z,24.93
2022-09-12T13:39:57.514Z,24.94
2022-09-12T13:40:28.950Z,24.95
2022-09-12T13:41:00.466Z,24.94
2022-09-12T13:41:31.877Z,24.95
2022-09-12T13:42:03.263Z,24.93
2022-09-12T13:42:34.700Z,24.94
2022-09-12T13:43:06.183Z,24.96
2022-09-12T13:43:37.650Z,24.95
2022-09-12T13:44:09.129Z,24.95
2022-09-12T13:44:40.578Z,24.93
2022-09-12T13:45:12.005Z,24.97
2022-09-12T13:45:43.449Z,24.98
2022-09-12T13:46:14.926Z,24.96
2022-09-12T13:46:46.402Z,24.99
2022-09-12T13:47:17.821Z,24.97
2022-09-12T13:47:49.264Z,24.97
2022-09-12T13:48:20.810Z,24.98
2022-09-12T13:48:52.238Z,24.99
2022-09-12T13:49:23.768Z,24.97
2022-09-12T13:49:55.216Z,25.00
2022-09-12T13:50:26.634Z,24.99
2022-09-12T13:50:58.092Z,24.97
2022-09-12T13:51:29.518Z,24.97
2022-09-12T13:52:01.029Z,24.95
2022-09-12T13:52:32.486Z,24.95
2022-09-12T13:53:03.912Z,24.94
2022-09-12T13:53:35.381Z,24.94
2022-09-12T13:54:06.815Z,24.93
2022-09-12T13:54:38.287Z,24.92
2022-09-12T13:55:09.665Z,24.91
2022-09-12T13:55:41.087Z,24.92
2022-09-12T13:56:12.476Z,24.93
2022-09-12T13:56:44.031Z,24.93
2022-09-12T13:57:15.470Z,24.94
2022-09-12T13:57:49.695Z,24.94
2022-09-12T13:58:21.166Z,24.93
2022-09-12T13:58:52.552Z,24.95
2022-09-12T13:59:24.034Z,24.94
2022-09-12T13:59:55.544Z,24.93
2022-09-12T14:00:26.986Z,24.93
2022-09-12T14:00:58.400Z,24.92
2022-09-12T14:01:29.827Z,24.93
2022-09-12T14:02:01.323Z,24.93
2022-09-12T14:02:32.794Z,24.92
2022-09-12T14:03:04.268Z,24.94
2022-09-12T14:03:35.703Z,24.94
2022-09-12T14:04:07.118Z,24.93
2022-09-12T14:04:38.495Z,24.93
2022-09-12T14:05:09.990Z,24.93
2022-09-12T14:05:41.458Z,24.95
2022-09-12T14:06:12.894Z,24.93
2022-09-12T14:06:44.328Z,24.93
2022-09-12T14:07:16.032Z,24.94
2022-09-12T14:07:47.499Z,24.95
2022-09-12T14:08:18.910Z,24.96
2022-09-12T14:08:50.496Z,24.94
2022-09-12T14:09:24.974Z,24.95
2022-09-12T14:09:56.857Z,24.94
2022-09-12T14:10:28.270Z,24.93
2022-09-12T14:10:59.681Z,24.94
2022-09-12T14:11:31.083Z,24.93
2022-09-12T14:12:02.490Z,24.93
2022-09-12T14:12:33.931Z,24.94
2022-09-12T14:13:05.374Z,24.95
2022-09-12T14:13:36.800Z,24.95
2022-09-12T14:14:08.251Z,24.96
2022-09-12T14:14:39.609Z,24.95
2022-09-12T14:15:11.049Z,24.96
2022-09-12T14:15:42.535Z,24.98
2022-09-12T14:16:14.007Z,24.97
2022-09-12T14:16:45.475Z,24.97
2022-09-12T14:17:18.950Z,24.97
2022-09-12T14:17:53.277Z,24.99
2022-09-12T14:18:24.742Z,24.99
2022-09-12T14:18:56.173Z,24.98
2022-09-12T14:19:27.552Z,24.95
2022-09-12T14:19:58.979Z,24.97
2022-09-12T14:20:30.408Z,24.97
2022-09-12T14:21:01.828Z,24.99
2022-09-12T14:21:33.242Z,24.98
2022-09-12T14:22:04.654Z,24.98
2022-09-12T14:22:36.106Z,24.97
2022-09-12T14:23:07.531Z,24.97
2022-09-12T14:23:38.978Z,24.96
2022-09-12T14:24:10.386Z,24.96
2022-09-12T14:24:41.860Z,24.96
2022-09-12T14:25:13.272Z,24.95
2022-09-12T14:25:44.813Z,24.94
2022-09-12T14:26:16.325Z,24.94
2022-09-12T14:26:47.725Z,24.96
2022-09-12T14:27:19.172Z,24.95
2022-09-12T14:27:50.665Z,24.94
2022-09-12T14:28:23.750Z,24.95
2022-09-12T14:28:55.398Z,24.97
2022-09-12T14:29:26.827Z,24.95
2022-09-12T14:29:58.346Z,24.98
2022-09-12T14:30:29.734Z,24.95
2022-09-12T14:31:01.224Z,24.96
2022-09-12T14:31:32.673Z,24.94
2022-09-12T14:32:04.230Z,24.98
2022-09-12T14:32:35.631Z,24.97
2022-09-12T14:33:07.087Z,24.97
2022-09-12T14:33:38.500Z,24.96
2022-09-12T14:34:09.932Z,24.95
2022-09-12T14:34:41.342Z,24.95
2022-09-12T14:35:12.742Z,24.95
2022-09-12T14:35:44.156Z,24.94
2022-09-12T14:36:15.863Z,24.97
2022-09-12T14:36:47.500Z,24.99
2022-09-12T14:37:18.873Z,24.98
2022-09-12T14:37:50.305Z,24.97
2022-09-12T14:38:21.777Z,24.94
2022-09-12T14:38:53.216Z,24.94
2022-09-12T14:39:24.616Z,24.94
2022-09-12T14:39:56.090Z,24.96
2022-09-12T14:40:27.576Z,24.97
2022-09-12T14:40:59.014Z,24.98
2022-09-12T14:41:30.395Z,24.98
2022-09-12T14:42:01.832Z,24.97
2022-09-12T14:42:33.246Z,24.96
2022-09-12T14:43:04.734Z,24.94
2022-09-12T14:43:36.249Z,24.98
2022-09-12T14:44:07.708Z,24.95
2022-09-12T14:44:39.095Z,24.98
2022-09-12T14:45:10.523Z,24.94
2022-09-12T14:45:42.010Z,24.94
2022-09-12T14:46:13.472Z,24.94
2022-09-12T14:46:44.870Z,24.96
2022-09-12T14:47:16.373Z,24.97
2022-09-12T14:47:47.836Z,24.98
2022-09-12T14:48:19.241Z,24.97
2022-09-12T14:48:50.766Z,24.97
2022-09-12T14:49:22.162Z,24.97
2022-09-12T14:49:53.610Z,24.97
2022-09-12T14:50:25.033Z,24.98
2022-09-12T14:50:56.430Z,24.98
2022-09-12T14:51:27.827Z,24.96
2022-09-12T14:51:59.260Z,24.97
2022-09-12T14:52:30.679Z,24.95
2022-09-12T14:53:02.138Z,24.98
2022-09-12T14:53:33.510Z,24.96
2022-09-12T14:54:04.949Z,24.98
2022-09-12T14:54:36.355Z,24.97
2022-09-12T14:55:07.841Z,24.97
2022-09-12T14:55:39.328Z,24.96
2022-09-12T14:56:10.765Z,24.98
2022-09-12T14:56:42.181Z,24.99
2022-09-12T14:57:13.715Z,24.99
2022-09-12T14:57:45.140Z,24.98
2022-09-12T14:58:16.540Z,24.98
2022-09-12T14:58:47.970Z,24.99
2022-09-12T14:59:19.432Z,24.98
2022-09-12T14:59:50.844Z,24.98
2022-09-12T15:00:22.263Z,24.97
2022-09-12T15:00:53.682Z,24.97
2022-09-12T15:01:25.261Z,24.96
2022-09-12T15:01:56.759Z,24.98
2022-09-12T15:02:28.191Z,24.96
2022-09-12T15:02:59.626Z,24.96
2022-09-12T15:03:31.050Z,24.97
2022-09-12T15:04:02.513Z,24.96
2022-09-12T15:04:34.037Z,24.95
2022-09-12T15:05:05.484Z,24.97
2022-09-12T15:05:36.926Z,24.98
2022-09-12T15:06:08.354Z,24.97
2022-09-12T15:06:39.727Z,24.95
2022-09-12T15:07:11.182Z,24.97
2022-09-12T15:07:42.580Z,24.96
2022-09-12T15:08:13.982Z,24.97
2022-09-12T15:08:45.408Z,24.96
2022-09-12T15:09:16.909Z,24.94
2022-09-12T15:09:48.372Z,24.94
2022-09-12T15:10:19.773Z,24.95
2022-09-12T15:10:51.240Z,24.95
2022-09-12T15:11:22.630Z,24.95
2022-09-12T15:11:54.060Z,24.96
2022-09-12T15:12:25.542Z,24.97
2022-09-12T15:12:56.917Z,24.95
2022-09-12T15:13:28.338Z,24.96
2022-09-12T15:13:59.734Z,24.94
2022-09-12T15:14:31.092Z,24.95
2022-09-12T15:15:02.706Z,24.95
2022-09-12T15:15:34.157Z,24.96
2022-09-12T15:16:05.673Z,24.96
2022-09-12T15:16:37.086Z,24.95
2022-09-12T15:17:08.485Z,24.95
2022-09-12T15:17:40.166Z,24.94
2022-09-12T15:18:11.615Z,24.94
2022-09-12T15:18:43.039Z,24.92
2022-09-12T15:19:14.426Z,24.95
2022-09-12T15:19:45.861Z,24.96
2022-09-12T15:20:17.306Z,24.97
2022-09-12T15:20:48.750Z,24.96
2022-09-12T15:21:20.165Z,24.96
2022-09-12T15:21:51.531Z,24.94
2022-09-12T15:22:22.923Z,24.94
2022-09-12T15:22:54.306Z,24.95
2022-09-12T15:23:25.799Z,24.95
2022-09-12T15:23:57.240Z,24.96
2022-09-12T15:24:28.758Z,24.96
2022-09-12T15:25:00.281Z,24.96
2022-09-12T15:25:31.760Z,24.95
2022-09-12T15:26:03.216Z,24.97
2022-09-12T15:26:34.627Z,24.97
2022-09-12T15:27:06.043Z,24.95
2022-09-12T15:27:37.434Z,24.96
2022-09-12T15:28:08.848Z,24.96
2022-09-12T15:28:40.265Z,24.95
2022-09-12T15:29:11.678Z,24.93
2022-09-12T15:29:43.091Z,24.95
2022-09-12T15:30:14.565Z,24.95
2022-09-12T15:30:46.030Z,24.95
2022-09-12T15:31:17.471Z,24.95
2022-09-12T15:31:48.980Z,24.96
2022-09-12T15:32:20.419Z,24.96
2022-09-12T15:32:51.840Z,24.95
2022-09-12T15:33:23.264Z,24.95
2022-09-12T15:33:54.672Z,24.96
2022-09-12T15:34:26.067Z,24.94
2022-09-12T15:34:57.510Z,24.97
2022-09-12T15:35:28.981Z,24.98
2022-09-12T15:36:00.371Z,24.97
2022-09-12T15:36:31.798Z,24.97
2022-09-12T15:37:03.226Z,24.98
2022-09-12T15:37:34.646Z,24.98
2022-09-12T15:38:06.091Z,24.97
2022-09-12T15:38:37.515Z,24.94
2022-09-12T15:39:08.945Z,24.95
2022-09-12T15:39:40.381Z,24.95
2022-09-12T15:40:11.858Z,24.98
2022-09-12T15:40:43.371Z,24.98
2022-09-12T15:41:14.780Z,24.98
2022-09-12T15:41:46.187Z,24.96
2022-09-12T15:42:17.665Z,24.96
2022-09-12T15:42:49.077Z,24.98
2022-09-12T15:43:20.487Z,24.95
2022-09-12T15:43:51.930Z,24.98
2022-09-12T15:44:23.362Z,24.97
2022-09-12T15:44:54.772Z,24.99
2022-09-12T15:45:26.211Z,24.98
2022-09-12T15:45:57.700Z,24.98
2022-09-12T15:46:29.166Z,24.97
2022-09-12T15:47:00.561Z,24.95
2022-09-12T15:47:31.940Z,24.95
2022-09-12T15:48:03.386Z,24.99
2022-09-12T15:48:34.847Z,24.98
2022-09-12T15:49:06.271Z,24.97
2022-09-12T15:49:37.706Z,24.94
2022-09-12T15:50:09.275Z,24.95
2022-09-12T15:50:40.789Z,24.96
2022-09-12T15:51:15.255Z,24.94
2022-09-12T15:51:49.971Z,24.95
2022-09-12T15:52:21.414Z,24.93
2022-09-12T15:52:52.807Z,24.94
2022-09-12T15:53:24.220Z,24.95
2022-09-12T15:53:55.600Z,24.96
2022-09-12T15:54:27.040Z,24.95
2022-09-12T15:54:58.454Z,24.94
2022-09-12T15:55:29.869Z,24.94
2022-09-12T15:56:01.302Z,24.93
2022-09-12T15:56:32.941Z,24.93
2022-09-12T15:57:04.437Z,24.93
2022-09-12T15:57:35.843Z,24.94
2022-09-12T15:58:07.539Z,24.93
2022-09-12T15:58:50.010Z,24.94
2022-09-12T15:59:26.338Z,24.92
2022-09-12T15:59:57.774Z,24.93
2022-09-12T16:00:29.198Z,24.94
2022-09-12T16:01:00.583Z,24.94
2022-09-12T16:01:32.084Z,24.93
2022-09-12T16:02:03.658Z,24.93
2022-09-12T16:02:35.158Z,24.96
2022-09-12T16:03:06.658Z,24.96
2022-09-12T16:03:38.214Z,24.96
2022-09-12T16:04:09.659Z,24.96
2022-09-12T16:04:41.078Z,24.95
2022-09-12T16:05:12.498Z,24.96
2022-09-12T16:05:43.900Z,24.96
2022-09-12T16:06:15.294Z,24.96
2022-09-12T16:06:46.750Z,24.95
2022-09-12T16:07:18.195Z,24.98